CYQT

Thunder Bay Airport

Thunder Bay, , Canada
METAR CYQT 181600Z 00000KT 15SM BKN011 OVC020 M06/M07 A2963 RMK SC6SC2 SLP047
Observed Flight Rules
Dec-18 @ 16:00 UTC (45 minutes ago) Marginal Visual Flight Rules
Wind Visibility Clouds
Calm 15 miles
  • Broken at 1,100' AGL
  • Overcast at 2,000' AGL
Temperatures Readings
Current -6°C / 21°F
Dewpoint -7°C / 19°F
Humidity 93%
Altimeter 29.63" Hg
Pressure 1004.7 hPa
Elevation 199
METAR CYQT 181600Z 00000KT 15SM BKN011 OVC020 M06/M07 A2963 RMK SC6SC2 SLP047
Observed Flight Rules
Dec-18 @ 16:00 UTC
(45 minutes ago)
MVFR
Wind Visibility
Calm 15 miles
Clouds
  • Broken at 1,100' AGL
  • Overcast at 2,000' AGL
Temperature Dewpoint
-6°C / 21°F -7°C / 19°F
Humidity Altimeter Pressure
93% 29.63" Hg 1004.7 hPa